Time;durP1;ratioP1;P1;durP2;ratioP2;P2;SDS_P1;SDS_P2;PMS_P1;PMS_P2;Temp;Humidity;BMP_temperature;BMP_pressure;BME280_temperature;BME280_humidity;BME280_pressure;Samples;Min_cycle;Max_cycle;Signal;HPM_P1;HPM_P2
2023/10/18 00:02:16;;;;;;;14.80;12.00;;;4.00;99.90;;;;;;5052229;28;20198;-84
2023/10/18 00:04:43;;;;;;;16.63;11.90;;;4.00;99.90;;;;;;5041248;28;20237;-84
2023/10/18 00:07:12;;;;;;;15.60;12.10;;;4.00;99.90;;;;;;5036713;28;20186;-84
2023/10/18 00:09:48;;;;;;;17.83;12.33;;;4.00;99.90;;;;;;5052334;28;20197;-84
2023/10/18 00:12:16;;;;;;;13.73;11.30;;;4.00;99.90;;;;;;5048989;28;20210;-85
2023/10/18 00:14:45;;;;;;;14.30;11.87;;;4.00;99.90;;;;;;5048730;28;20213;-84
2023/10/18 00:17:13;;;;;;;13.77;11.33;;;4.00;99.90;;;;;;5061833;28;20642;-84
2023/10/18 00:19:40;;;;;;;14.93;11.23;;;4.00;99.90;;;;;;5055228;28;20217;-84
2023/10/18 00:22:09;;;;;;;16.23;12.13;;;4.00;99.90;;;;;;5051718;28;20210;-84
2023/10/18 00:24:36;;;;;;;15.37;11.47;;;3.90;99.90;;;;;;5062751;28;20236;-84
2023/10/18 00:27:04;;;;;;;18.43;11.90;;;3.90;99.90;;;;;;5053919;28;20209;-84
2023/10/18 00:29:31;;;;;;;18.67;12.37;;;3.90;99.90;;;;;;5052860;28;20198;-84
2023/10/18 00:32:00;;;;;;;15.90;12.63;;;3.90;99.90;;;;;;5053391;28;20256;-84
2023/10/18 00:34:28;;;;;;;17.10;12.40;;;3.90;99.90;;;;;;5053714;28;20201;-84
2023/10/18 00:36:55;;;;;;;15.33;12.27;;;3.90;99.90;;;;;;5053292;28;20193;-86
2023/10/18 00:39:27;;;;;;;16.73;12.30;;;3.90;99.90;;;;;;5050013;28;20717;-84
2023/10/18 00:41:54;;;;;;;16.20;12.20;;;3.90;99.90;;;;;;5048461;28;20896;-84
2023/10/18 00:44:22;;;;;;;16.97;12.30;;;3.90;99.90;;;;;;5053576;28;20221;-83
2023/10/18 00:46:52;;;;;;;14.70;11.30;;;3.90;99.90;;;;;;5052783;28;20240;-84
2023/10/18 00:49:21;;;;;;;15.63;11.90;;;3.90;99.90;;;;;;5053410;28;20662;-84
2023/10/18 00:51:49;;;;;;;16.27;12.27;;;3.90;99.90;;;;;;5052132;28;20229;-84
2023/10/18 00:54:19;;;;;;;15.90;12.03;;;3.80;99.90;;;;;;5060840;28;20198;-84
2023/10/18 00:56:46;;;;;;;16.03;11.90;;;3.80;99.90;;;;;;5047290;28;20210;-84
2023/10/18 00:59:21;;;;;;;17.30;12.70;;;3.70;99.90;;;;;;5048141;28;20205;-84
2023/10/18 01:01:55;;;;;;;16.53;12.23;;;3.70;99.90;;;;;;5051232;28;20197;-84
2023/10/18 01:04:28;;;;;;;14.17;12.30;;;3.70;99.90;;;;;;5053599;28;20613;-84
2023/10/18 01:06:57;;;;;;;13.67;11.80;;;3.70;99.90;;;;;;5050643;28;20276;-84
2023/10/18 01:09:25;;;;;;;16.27;12.87;;;3.70;99.90;;;;;;5053330;28;20202;-84
2023/10/18 01:11:52;;;;;;;14.77;12.07;;;3.70;99.90;;;;;;5052363;28;20194;-84
2023/10/18 01:14:24;;;;;;;17.47;12.60;;;3.60;99.90;;;;;;5044452;28;20202;-85
2023/10/18 01:16:53;;;;;;;14.67;12.13;;;3.60;99.90;;;;;;5035780;28;20205;-84
2023/10/18 01:19:22;;;;;;;15.83;12.43;;;3.80;99.90;;;;;;5053069;28;20260;-84
2023/10/18 01:21:51;;;;;;;16.27;11.83;;;3.90;99.90;;;;;;5034591;28;20213;-84
2023/10/18 01:24:19;;;;;;;19.70;13.53;;;3.80;99.90;;;;;;5059307;28;20631;-84
2023/10/18 01:26:48;;;;;;;18.17;14.13;;;3.80;99.90;;;;;;5056290;28;20200;-84
2023/10/18 01:29:15;;;;;;;17.97;14.03;;;3.80;99.90;;;;;;5052526;28;20201;-84
2023/10/18 01:31:44;;;;;;;18.67;14.63;;;3.80;99.90;;;;;;5051298;28;20540;-84
2023/10/18 01:34:12;;;;;;;19.77;14.13;;;3.90;99.90;;;;;;5049239;28;20201;-84
2023/10/18 01:36:40;;;;;;;19.63;14.97;;;3.90;99.90;;;;;;5052344;28;20194;-85
2023/10/18 01:39:18;;;;;;;23.70;15.83;;;3.90;99.90;;;;;;5035000;28;20205;-83
2023/10/18 01:41:48;;;;;;;21.70;15.83;;;4.00;99.90;;;;;;5048871;28;20204;-85
2023/10/18 01:44:27;;;;;;;25.90;16.27;;;4.00;99.90;;;;;;5044831;28;20317;-83
2023/10/18 01:46:55;;;;;;;20.57;16.10;;;4.00;99.90;;;;;;5047060;28;20208;-85
2023/10/18 01:49:24;;;;;;;23.33;15.53;;;4.10;99.90;;;;;;5051938;28;20205;-84
2023/10/18 01:51:57;;;;;;;20.43;15.20;;;4.20;99.90;;;;;;5050902;28;20233;-84
2023/10/18 01:54:25;;;;;;;22.73;16.20;;;4.20;99.90;;;;;;5035127;28;20292;-84
2023/10/18 01:56:55;;;;;;;23.37;15.47;;;4.20;99.90;;;;;;5051413;28;20275;-83
2023/10/18 01:59:27;;;;;;;19.33;14.17;;;4.20;99.90;;;;;;5033267;28;20281;-84
2023/10/18 02:01:54;;;;;;;22.00;14.80;;;4.30;99.90;;;;;;5052590;28;20200;-84
2023/10/18 02:04:25;;;;;;;22.23;14.73;;;4.50;99.90;;;;;;5050906;28;20222;-84
2023/10/18 02:06:52;;;;;;;32.53;15.77;;;4.70;99.90;;;;;;5052261;28;20194;-84
2023/10/18 02:09:20;;;;;;;30.00;16.40;;;4.70;99.90;;;;;;5048295;28;20194;-84
2023/10/18 02:11:47;;;;;;;50.97;18.17;;;4.60;99.90;;;;;;5047694;28;20201;-84
2023/10/18 02:14:15;;;;;;;29.23;16.67;;;4.50;99.90;;;;;;5049504;28;20683;-84
2023/10/18 02:16:45;;;;;;;31.43;17.90;;;4.50;99.90;;;;;;5043488;28;20202;-84
2023/10/18 02:19:14;;;;;;;24.90;16.70;;;4.50;99.90;;;;;;5050731;28;20206;-84
2023/10/18 02:21:41;;;;;;;33.93;17.60;;;4.50;99.90;;;;;;5051207;28;20197;-84
2023/10/18 02:24:11;;;;;;;37.60;18.57;;;4.50;99.90;;;;;;5050628;28;20255;-84
2023/10/18 02:26:47;;;;;;;49.80;17.27;;;4.50;99.90;;;;;;5048336;28;20233;-84
2023/10/18 02:29:17;;;;;;;37.43;17.20;;;4.50;99.90;;;;;;5039619;28;20198;-84
2023/10/18 02:31:44;;;;;;;55.83;18.23;;;4.50;99.90;;;;;;5041717;28;20599;-84
2023/10/18 02:34:14;;;;;;;57.03;19.33;;;4.50;99.90;;;;;;5044980;28;20244;-83
2023/10/18 02:36:47;;;;;;;40.23;18.53;;;4.50;99.90;;;;;;5048534;28;20213;-84
2023/10/18 02:39:21;;;;;;;30.00;19.30;;;4.50;99.90;;;;;;5029396;28;20202;-84
2023/10/18 02:41:49;;;;;;;33.17;19.03;;;4.40;99.90;;;;;;5051302;28;20200;-84
2023/10/18 02:44:29;;;;;;;32.07;19.80;;;4.40;99.90;;;;;;5047444;28;20225;-84
2023/10/18 02:47:07;;;;;;;30.60;18.63;;;4.40;99.90;;;;;;5035124;28;20206;-84
2023/10/18 02:49:34;;;;;;;27.63;17.53;;;4.50;99.90;;;;;;5051235;28;20272;-84
2023/10/18 02:52:03;;;;;;;23.97;17.63;;;4.40;99.90;;;;;;5049624;28;20294;-84
2023/10/18 02:54:32;;;;;;;23.27;17.30;;;4.40;99.90;;;;;;5047849;28;20663;-84
2023/10/18 02:56:59;;;;;;;22.57;16.77;;;4.30;99.90;;;;;;5043499;28;20906;-84
2023/10/18 02:59:27;;;;;;;22.93;16.30;;;4.20;99.90;;;;;;5049233;28;20209;-85
2023/10/18 03:01:55;;;;;;;24.03;17.07;;;4.20;99.90;;;;;;5049620;28;20198;-84
2023/10/18 03:04:23;;;;;;;19.17;14.57;;;4.20;99.90;;;;;;5047354;28;20221;-84
2023/10/18 03:06:51;;;;;;;20.27;15.37;;;4.20;99.90;;;;;;5042666;28;20202;-84
2023/10/18 03:09:34;;;;;;;22.63;15.40;;;4.10;99.90;;;;;;5051320;28;20252;-83
2023/10/18 03:12:01;;;;;;;19.43;15.07;;;4.20;99.90;;;;;;5046804;28;20915;-84
2023/10/18 03:14:39;;;;;;;21.60;15.30;;;4.30;99.90;;;;;;5047972;28;20611;-86
2023/10/18 03:17:14;;;;;;;16.37;13.73;;;4.20;99.90;;;;;;5044732;28;20221;-84
2023/10/18 03:19:43;;;;;;;18.07;14.23;;;4.20;99.90;;;;;;5050994;28;20278;-84
2023/10/18 03:22:10;;;;;;;20.67;14.07;;;4.30;99.90;;;;;;5050915;28;20198;-84
2023/10/18 03:24:37;;;;;;;23.87;14.87;;;4.20;99.90;;;;;;5051355;28;20932;-84
2023/10/18 03:27:08;;;;;;;21.17;14.77;;;4.20;99.90;;;;;;5054741;28;20205;-84
2023/10/18 03:29:37;;;;;;;21.30;15.43;;;4.10;99.90;;;;;;5051807;28;20202;-85
2023/10/18 03:32:06;;;;;;;24.90;15.43;;;4.00;99.90;;;;;;5044797;28;20212;-84
2023/10/18 03:34:35;;;;;;;23.60;15.83;;;4.00;99.90;;;;;;5045260;28;20286;-84
2023/10/18 03:37:04;;;;;;;19.40;14.30;;;4.00;99.90;;;;;;5044991;28;20206;-84
2023/10/18 03:39:31;;;;;;;44.90;15.97;;;4.10;99.90;;;;;;5044785;28;20195;-85
2023/10/18 03:42:00;;;;;;;20.40;15.67;;;4.00;99.90;;;;;;5055351;28;20194;-83
2023/10/18 03:44:28;;;;;;;19.70;15.50;;;4.00;99.90;;;;;;5046496;28;20216;-83
2023/10/18 03:47:04;;;;;;;24.03;15.30;;;4.00;99.90;;;;;;5054277;28;20194;-84
2023/10/18 03:49:36;;;;;;;31.67;16.80;;;4.00;99.90;;;;;;5055078;28;20194;-83
2023/10/18 03:52:16;;;;;;;33.50;15.63;;;4.00;99.90;;;;;;5053548;28;20217;-84
2023/10/18 03:54:47;;;;;;;24.63;14.37;;;4.20;99.90;;;;;;5053971;28;20213;-84
2023/10/18 03:57:17;;;;;;;23.97;13.20;;;4.30;99.90;;;;;;5054094;28;20252;-84
2023/10/18 03:59:46;;;;;;;38.77;14.00;;;4.30;99.90;;;;;;5053778;28;20229;-83
2023/10/18 04:02:26;;;;;;;21.73;13.87;;;4.30;99.90;;;;;;5054937;28;20198;-84
2023/10/18 04:04:58;;;;;;;32.53;13.83;;;4.20;99.90;;;;;;5054991;28;20248;-84
2023/10/18 04:07:26;;;;;;;44.50;14.70;;;4.20;99.90;;;;;;5053928;28;21243;-84
2023/10/18 04:10:06;;;;;;;16.00;13.77;;;4.10;99.90;;;;;;5054200;28;20230;-83
2023/10/18 04:12:34;;;;;;;48.93;15.60;;;4.10;99.90;;;;;;5049055;28;20784;-84
2023/10/18 04:15:12;;;;;;;36.77;15.30;;;4.00;99.90;;;;;;5037404;28;20206;-84
2023/10/18 04:17:42;;;;;;;32.90;14.23;;;3.90;99.90;;;;;;5035105;28;20198;-85
2023/10/18 04:20:22;;;;;;;25.90;14.23;;;3.90;99.90;;;;;;5054541;28;20558;-84
2023/10/18 04:22:49;;;;;;;24.50;14.53;;;4.00;99.90;;;;;;5053902;28;20189;-84
2023/10/18 04:25:16;;;;;;;20.47;14.33;;;4.00;99.90;;;;;;5053970;28;20217;-84
2023/10/18 04:27:44;;;;;;;44.53;15.10;;;4.00;99.90;;;;;;5056976;28;20209;-84
2023/10/18 04:30:13;;;;;;;46.60;14.33;;;4.00;99.90;;;;;;5054486;28;20268;-86
2023/10/18 04:32:42;;;;;;;29.53;13.90;;;3.90;99.90;;;;;;5049123;28;20202;-84
2023/10/18 04:35:15;;;;;;;19.87;14.20;;;4.00;99.90;;;;;;5050270;28;20194;-85
2023/10/18 04:37:43;;;;;;;72.43;15.30;;;4.20;99.90;;;;;;5052296;28;20748;-86
2023/10/18 04:40:22;;;;;;;24.63;15.10;;;4.10;99.90;;;;;;5051156;28;20208;-86
2023/10/18 04:42:49;;;;;;;31.57;15.10;;;3.90;99.90;;;;;;5050256;28;20226;-86
2023/10/18 04:45:18;;;;;;;31.60;15.87;;;3.90;99.90;;;;;;5050464;28;20585;-87
2023/10/18 04:47:49;;;;;;;34.07;15.13;;;3.90;99.90;;;;;;5048270;28;20204;-85
2023/10/18 04:50:19;;;;;;;27.07;15.63;;;3.90;99.90;;;;;;5052118;28;20720;-85
2023/10/18 04:52:48;;;;;;;20.37;15.80;;;3.80;99.90;;;;;;5047952;28;20202;-85
2023/10/18 04:55:15;;;;;;;45.77;15.80;;;3.80;99.90;;;;;;5033580;28;20281;-86
2023/10/18 04:57:42;;;;;;;28.10;15.83;;;3.80;99.90;;;;;;5050829;28;20205;-85
2023/10/18 05:02:59;;;;;;;37.27;15.97;;;4.00;99.90;;;;;;5042787;28;20198;-84
2023/10/18 05:05:26;;;;;;;19.77;14.30;;;4.10;99.90;;;;;;5052052;28;20222;-85
2023/10/18 05:07:54;;;;;;;26.07;14.73;;;4.10;99.90;;;;;;5052310;28;20237;-86
2023/10/18 05:10:21;;;;;;;16.77;14.40;;;4.00;99.90;;;;;;5049288;28;20281;-86
2023/10/18 05:12:52;;;;;;;21.93;14.10;;;4.20;99.90;;;;;;5033556;28;20206;-86
2023/10/18 05:15:21;;;;;;;36.10;15.37;;;4.30;99.90;;;;;;5052477;28;20289;-85
2023/10/18 05:17:50;;;;;;;48.50;15.77;;;4.20;99.90;;;;;;5052440;28;20198;-85
2023/10/18 05:20:41;;;;;;;28.63;14.73;;;4.20;99.90;;;;;;5052761;28;20221;-85
2023/10/18 05:23:09;;;;;;;28.17;15.10;;;4.10;99.90;;;;;;5051168;28;20216;-85
2023/10/18 05:25:45;;;;;;;37.13;15.60;;;4.30;99.90;;;;;;5025668;28;20242;-86
2023/10/18 05:28:15;;;;;;;27.60;13.73;;;4.30;99.90;;;;;;5040299;28;20204;-85
2023/10/18 05:36:29;;;;;;;66.23;15.70;;;4.40;99.90;;;;;;5048612;28;20217;-87
2023/10/18 05:39:05;;;;;;;20.50;15.03;;;4.40;99.90;;;;;;5051109;28;20215;-85
2023/10/18 05:41:41;;;;;;;20.70;14.40;;;4.30;99.90;;;;;;5045168;28;20201;-85
2023/10/18 05:44:12;;;;;;;19.87;14.27;;;4.30;99.90;;;;;;5052406;28;20555;-85
2023/10/18 05:46:41;;;;;;;41.33;14.93;;;4.30;99.90;;;;;;5044788;28;20226;-87
2023/10/18 05:49:15;;;;;;;19.10;15.03;;;4.30;99.90;;;;;;5052088;28;20515;-88
2023/10/18 05:51:54;;;;;;;23.50;14.43;;;4.20;99.90;;;;;;5052247;28;20224;-85
2023/10/18 05:54:22;;;;;;;19.23;15.37;;;4.20;99.90;;;;;;5033133;28;20198;-85
2023/10/18 05:56:50;;;;;;;22.93;14.47;;;4.20;99.90;;;;;;5050981;28;20206;-85
2023/10/18 05:59:33;;;;;;;25.10;14.23;;;4.20;99.90;;;;;;5050743;28;20198;-84
2023/10/18 06:02:02;;;;;;;20.83;14.13;;;4.20;99.90;;;;;;5050336;28;20198;-85
2023/10/18 06:04:37;;;;;;;16.40;13.20;;;4.20;99.90;;;;;;5049474;28;20193;-84
2023/10/18 06:07:09;;;;;;;19.53;13.27;;;4.20;99.90;;;;;;5048151;28;21591;-84
2023/10/18 06:09:45;;;;;;;16.37;12.23;;;4.50;99.90;;;;;;5052241;28;20194;-82
2023/10/18 06:12:14;;;;;;;18.30;13.20;;;4.50;99.90;;;;;;5049660;28;20680;-85
2023/10/18 06:14:41;;;;;;;18.27;13.20;;;4.40;99.90;;;;;;5047433;28;20194;-82
2023/10/18 06:17:12;;;;;;;22.43;13.70;;;4.30;99.90;;;;;;5042261;28;20286;-82
2023/10/18 06:19:39;;;;;;;18.73;12.97;;;4.30;99.90;;;;;;5050704;28;20194;-82
2023/10/18 06:22:15;;;;;;;19.77;13.47;;;4.30;99.90;;;;;;5051003;28;20204;-82
2023/10/18 06:24:45;;;;;;;19.70;13.17;;;4.20;99.90;;;;;;5050487;28;20206;-83
2023/10/18 06:27:15;;;;;;;17.27;12.33;;;4.20;99.90;;;;;;5054569;28;20309;-83
2023/10/18 06:29:43;;;;;;;21.07;12.40;;;4.40;99.90;;;;;;5051830;28;20193;-83
2023/10/18 06:32:13;;;;;;;18.97;12.10;;;4.40;99.90;;;;;;5051921;28;20661;-85
2023/10/18 06:34:43;;;;;;;23.03;12.80;;;4.40;99.90;;;;;;5046696;28;20317;-82
2023/10/18 06:37:20;;;;;;;20.27;12.47;;;4.40;99.90;;;;;;5049350;28;20209;-81
2023/10/18 06:39:51;;;;;;;25.00;12.47;;;4.40;99.90;;;;;;5040516;28;20237;-82
2023/10/18 06:42:18;;;;;;;20.03;13.00;;;4.50;99.90;;;;;;5033286;28;20251;-83
2023/10/18 06:44:44;;;;;;;16.10;13.07;;;4.60;99.90;;;;;;5050953;28;20209;-82
2023/10/18 06:47:14;;;;;;;15.27;12.93;;;4.60;99.90;;;;;;5047265;28;21015;-83
2023/10/18 06:49:42;;;;;;;15.10;11.87;;;4.60;99.90;;;;;;5045885;28;20736;-81
2023/10/18 06:52:17;;;;;;;13.27;11.37;;;4.80;99.90;;;;;;5046337;28;20234;-84
2023/10/18 06:54:45;;;;;;;13.50;11.07;;;5.00;99.90;;;;;;5030667;28;20275;-83
2023/10/18 06:57:16;;;;;;;15.07;10.80;;;5.10;99.90;;;;;;5049969;28;20205;-85
2023/10/18 06:59:46;;;;;;;14.40;10.77;;;5.20;99.90;;;;;;5048334;28;20205;-83
2023/10/18 07:02:13;;;;;;;13.00;10.80;;;5.20;99.90;;;;;;5034991;28;20202;-83
2023/10/18 07:04:46;;;;;;;14.37;11.37;;;5.20;99.90;;;;;;5048160;28;20208;-83
2023/10/18 07:07:19;;;;;;;12.33;11.03;;;5.30;99.90;;;;;;5048585;28;20211;-83
2023/10/18 07:09:49;;;;;;;12.40;11.10;;;5.40;99.90;;;;;;5049731;28;20202;-83
2023/10/18 07:12:17;;;;;;;13.90;10.90;;;5.50;99.90;;;;;;5044589;28;20194;-82
2023/10/18 07:14:45;;;;;;;13.60;10.07;;;5.60;99.90;;;;;;5050633;28;20728;-82
2023/10/18 07:17:13;;;;;;;15.87;10.57;;;5.50;99.70;;;;;;5047747;28;20626;-82
2023/10/18 07:19:47;;;;;;;11.97;10.33;;;5.50;99.60;;;;;;5044532;28;20209;-85
2023/10/18 07:22:19;;;;;;;10.90;9.77;;;5.50;99.80;;;;;;5051158;28;20205;-82
2023/10/18 07:24:53;;;;;;;10.83;9.50;;;5.60;99.80;;;;;;5045018;28;20198;-85
2023/10/18 07:27:23;;;;;;;11.00;9.57;;;5.50;99.70;;;;;;5051411;28;20256;-85
2023/10/18 07:29:51;;;;;;;12.17;10.40;;;5.60;99.90;;;;;;5040920;28;20215;-85
2023/10/18 07:32:20;;;;;;;11.90;9.73;;;5.60;99.90;;;;;;5040889;28;20679;-82
2023/10/18 07:34:48;;;;;;;10.50;9.40;;;5.60;99.80;;;;;;5045220;28;20686;-82
2023/10/18 07:37:24;;;;;;;10.60;9.10;;;5.70;99.90;;;;;;5043424;28;20202;-82
2023/10/18 07:39:56;;;;;;;10.77;9.67;;;5.70;99.90;;;;;;5042332;28;20256;-83
2023/10/18 07:42:26;;;;;;;13.27;10.27;;;5.90;99.20;;;;;;5035811;28;20187;-82
2023/10/18 07:44:55;;;;;;;10.43;9.33;;;6.10;98.90;;;;;;5046274;28;20198;-83
2023/10/18 07:47:25;;;;;;;12.47;9.37;;;6.30;98.90;;;;;;5023705;28;20218;-82
2023/10/18 07:49:55;;;;;;;12.20;9.80;;;6.30;98.40;;;;;;5038713;28;20727;-83
2023/10/18 07:52:23;;;;;;;10.03;9.03;;;6.50;98.40;;;;;;5049289;28;20214;-84
2023/10/18 07:54:50;;;;;;;10.35;9.35;;;6.80;97.20;;;;;;5037858;28;20216;-86
2023/10/18 07:57:17;;;;;;;11.67;8.97;;;6.80;96.60;;;;;;5046835;28;20210;-84
2023/10/18 07:59:48;;;;;;;11.30;9.23;;;6.70;96.80;;;;;;5048442;28;20289;-83
2023/10/18 08:02:19;;;;;;;10.53;9.43;;;6.80;96.70;;;;;;5048032;28;20205;-84
2023/10/18 08:04:47;;;;;;;12.00;10.27;;;7.00;96.60;;;;;;5046469;28;20216;-84
2023/10/18 08:07:16;;;;;;;11.60;10.23;;;6.90;96.40;;;;;;5041323;28;20299;-83
2023/10/18 08:09:48;;;;;;;12.93;11.32;;;7.00;96.70;;;;;;5048969;28;20197;-82
2023/10/18 08:12:28;;;;;;;13.68;11.13;;;7.00;95.90;;;;;;5048696;28;20194;-82
2023/10/18 08:14:55;;;;;;;15.55;11.13;;;7.00;96.10;;;;;;5041113;28;20284;-81
2023/10/18 08:17:33;;;;;;;12.02;10.70;;;6.80;96.50;;;;;;5051734;28;20202;-84
2023/10/18 08:22:42;;;;;;;13.23;11.65;;;7.00;96.90;;;;;;5049818;28;20202;-82
2023/10/18 08:25:21;;;;;;;11.88;10.68;;;6.90;97.50;;;;;;5050293;28;20209;-85
2023/10/18 08:27:48;;;;;;;10.80;9.70;;;7.10;96.80;;;;;;5045754;28;20279;-83
2023/10/18 08:30:24;;;;;;;11.85;9.65;;;7.10;96.80;;;;;;5046944;28;20198;-83
2023/10/18 08:32:51;;;;;;;12.57;9.40;;;7.30;96.10;;;;;;5053113;28;20214;-84
2023/10/18 08:35:20;;;;;;;9.75;8.75;;;7.30;95.60;;;;;;5036462;28;20233;-83
2023/10/18 08:37:47;;;;;;;10.40;9.40;;;7.40;95.60;;;;;;5035235;28;20206;-82
2023/10/18 08:40:27;;;;;;;9.93;8.93;;;7.40;95.70;;;;;;5036383;28;20194;-82
2023/10/18 08:43:06;;;;;;;10.15;9.05;;;7.70;95.60;;;;;;5035383;28;20194;-83
2023/10/18 08:45:36;;;;;;;10.05;9.00;;;7.80;94.70;;;;;;5049395;28;20585;-83
2023/10/18 08:48:10;;;;;;;9.63;8.73;;;8.00;94.40;;;;;;5045784;28;20225;-82
2023/10/18 08:50:40;;;;;;;10.57;9.20;;;8.00;94.50;;;;;;5039117;28;20226;-83
2023/10/18 08:53:08;;;;;;;11.52;9.25;;;8.10;94.50;;;;;;5051165;28;20205;-82
2023/10/18 08:55:51;;;;;;;10.77;8.85;;;8.30;93.60;;;;;;5048041;28;20222;-81
2023/10/18 08:58:19;;;;;;;8.60;7.80;;;8.60;93.80;;;;;;5044055;28;20207;-83
2023/10/18 09:01:05;;;;;;;9.15;8.20;;;9.00;92.90;;;;;;5051913;28;20228;-85
2023/10/18 09:03:32;;;;;;;9.13;7.95;;;9.70;91.00;;;;;;5031499;28;20685;-84
2023/10/18 09:06:04;;;;;;;8.65;7.75;;;9.80;90.60;;;;;;5052445;28;20856;-82
2023/10/18 09:08:35;;;;;;;8.02;7.22;;;10.40;86.00;;;;;;5052815;28;20611;-82
2023/10/18 09:11:05;;;;;;;9.55;6.82;;;11.20;75.80;;;;;;5051696;28;20665;-85
2023/10/18 09:13:37;;;;;;;8.50;7.45;;;11.70;71.60;;;;;;5051939;28;20280;-82
2023/10/18 09:16:04;;;;;;;9.15;7.28;;;11.90;63.30;;;;;;5047822;28;20614;-82
2023/10/18 09:18:32;;;;;;;7.72;7.05;;;12.60;50.00;;;;;;5051673;28;20198;-84
2023/10/18 09:21:07;;;;;;;7.35;6.60;;;12.70;47.30;;;;;;5050851;28;20209;-83
2023/10/18 09:23:34;;;;;;;8.07;7.22;;;13.10;46.20;;;;;;5051661;28;20655;-83
2023/10/18 09:26:07;;;;;;;7.40;6.68;;;13.80;38.30;;;;;;5040611;28;20204;-84
2023/10/18 09:28:36;;;;;;;8.00;7.20;;;14.40;33.80;;;;;;5054821;28;20198;-83
2023/10/18 09:31:10;;;;;;;7.55;6.88;;;14.30;31.90;;;;;;5054485;28;20193;-83
2023/10/18 09:33:38;;;;;;;8.15;7.45;;;14.10;32.10;;;;;;5044141;28;20538;-84
2023/10/18 09:36:19;;;;;;;7.00;6.40;;;13.30;33.90;;;;;;5046493;28;20197;-82
2023/10/18 09:38:47;;;;;;;7.60;6.90;;;13.30;39.20;;;;;;5049677;28;20197;-82
2023/10/18 09:41:14;;;;;;;7.60;6.90;;;13.60;36.70;;;;;;5046318;28;20197;-80
2023/10/18 09:43:42;;;;;;;8.57;7.45;;;14.30;32.30;;;;;;5050637;28;20202;-83
2023/10/18 09:46:13;;;;;;;8.00;7.30;;;14.40;32.20;;;;;;5049597;28;20702;-84
2023/10/18 09:48:41;;;;;;;7.25;6.65;;;14.00;32.40;;;;;;5048362;28;21183;-84
2023/10/18 09:51:09;;;;;;;16.20;14.20;;;13.70;34.60;;;;;;5050789;28;20222;-85
2023/10/18 09:53:43;;;;;;;7.78;7.07;;;14.20;35.90;;;;;;5050219;28;20198;-85
2023/10/18 09:56:11;;;;;;;8.65;6.35;;;14.40;31.80;;;;;;5049620;28;20210;-83
2023/10/18 09:58:43;;;;;;;7.95;7.15;;;14.30;33.10;;;;;;5052106;28;20412;-84
2023/10/18 10:01:16;;;;;;;8.43;7.63;;;14.40;31.90;;;;;;5043953;28;20335;-83
2023/10/18 10:03:50;;;;;;;8.40;7.60;;;14.30;33.20;;;;;;5050951;28;20198;-83
2023/10/18 10:06:20;;;;;;;8.07;7.38;;;14.40;32.20;;;;;;5051119;28;20205;-84
2023/10/18 10:08:51;;;;;;;10.88;9.88;;;14.60;30.50;;;;;;5051269;28;20201;-83
2023/10/18 10:11:19;;;;;;;8.95;8.05;;;14.50;32.00;;;;;;5047510;28;20197;-84
2023/10/18 10:13:49;;;;;;;9.70;8.70;;;14.50;31.50;;;;;;5033818;28;20667;-84
2023/10/18 10:16:18;;;;;;;10.35;9.35;;;14.00;38.20;;;;;;5050504;28;20267;-83
2023/10/18 10:18:49;;;;;;;10.18;9.05;;;13.60;40.50;;;;;;5041496;28;20214;-84
2023/10/18 10:21:21;;;;;;;9.38;8.43;;;14.20;37.00;;;;;;5050736;28;20202;-83
2023/10/18 10:23:50;;;;;;;9.90;8.90;;;14.30;38.40;;;;;;5048392;28;20212;-84
2023/10/18 10:26:22;;;;;;;10.13;9.07;;;15.50;28.30;;;;;;5052292;28;20190;-82
2023/10/18 10:29:10;;;;;;;11.60;10.15;;;16.00;23.50;;;;;;5048328;28;20198;-83
2023/10/18 10:32:05;;;;;;;12.77;11.48;;;16.50;23.00;;;;;;5049185;28;20289;-81
2023/10/18 10:34:37;;;;;;;13.25;12.00;;;16.40;23.70;;;;;;5035760;28;20194;-87
2023/10/18 10:37:06;;;;;;;10.23;9.05;;;16.70;23.10;;;;;;5050255;28;20208;-82
2023/10/18 10:39:43;;;;;;;9.48;8.32;;;16.90;20.70;;;;;;5050530;28;20202;-83
2023/10/18 10:42:19;;;;;;;9.82;8.07;;;16.20;23.10;;;;;;5049675;28;20205;-82
2023/10/18 10:45:10;;;;;;;9.82;7.47;;;15.50;26.10;;;;;;5046288;28;20193;-83
2023/10/18 10:47:44;;;;;;;14.98;11.80;;;15.20;26.10;;;;;;5047774;28;20329;-82
2023/10/18 10:50:32;;;;;;;14.55;13.10;;;15.10;29.00;;;;;;5050387;28;20657;-82
2023/10/18 10:52:59;;;;;;;7.82;7.13;;;15.00;27.90;;;;;;5041594;28;20198;-83
2023/10/18 10:55:25;;;;;;;8.05;7.25;;;14.50;29.20;;;;;;5045642;28;20190;-82
2023/10/18 10:57:53;;;;;;;9.50;6.97;;;14.20;34.60;;;;;;5048811;28;20206;-83
2023/10/18 11:03:28;;;;;;;8.57;7.10;;;14.10;33.10;;;;;;5035195;28;20194;-82
2023/10/18 11:05:58;;;;;;;9.73;7.80;;;13.90;36.20;;;;;;5043169;28;20205;-82
2023/10/18 11:08:27;;;;;;;8.32;6.65;;;13.80;37.50;;;;;;5021492;28;20224;-83
2023/10/18 11:10:54;;;;;;;8.02;6.43;;;13.80;36.10;;;;;;5045531;28;21130;-83
2023/10/18 11:13:25;;;;;;;7.22;6.53;;;13.60;39.90;;;;;;5045166;28;20194;-82
2023/10/18 11:15:52;;;;;;;6.72;6.03;;;13.50;43.10;;;;;;5033332;28;20202;-81
2023/10/18 11:18:28;;;;;;;9.55;6.18;;;13.50;42.90;;;;;;5047210;28;20291;-83
2023/10/18 11:21:05;;;;;;;8.02;6.10;;;13.50;44.80;;;;;;5029140;28;20198;-84
2023/10/18 11:23:33;;;;;;;7.30;6.57;;;13.50;43.90;;;;;;5042938;28;20220;-85
2023/10/18 11:26:08;;;;;;;6.60;6.00;;;13.50;46.80;;;;;;5033467;28;20651;-87
2023/10/18 11:28:37;;;;;;;6.80;5.93;;;13.80;44.00;;;;;;5053564;28;20237;-93
2023/10/18 11:31:04;;;;;;;6.70;6.10;;;13.80;43.70;;;;;;5035260;28;20204;-84
2023/10/18 11:33:37;;;;;;;6.75;6.07;;;13.80;42.10;;;;;;5045819;28;20204;-85
2023/10/18 11:36:08;;;;;;;6.43;5.50;;;13.70;44.10;;;;;;5047080;28;20204;-84
2023/10/18 11:38:35;;;;;;;6.60;5.35;;;13.90;42.40;;;;;;5034419;28;20202;-85
2023/10/18 11:41:09;;;;;;;7.93;6.22;;;14.00;42.60;;;;;;5044728;28;20201;-87
2023/10/18 11:43:40;;;;;;;7.35;5.85;;;14.00;41.10;;;;;;5043699;28;20307;-84
2023/10/18 11:46:08;;;;;;;8.13;5.88;;;14.00;43.40;;;;;;5051781;28;20286;-83
2023/10/18 11:48:37;;;;;;;6.93;5.85;;;14.00;42.40;;;;;;5050513;28;20299;-84
2023/10/18 11:51:06;;;;;;;6.60;5.65;;;13.90;42.80;;;;;;5050438;28;20746;-84
2023/10/18 11:53:33;;;;;;;7.55;5.88;;;13.90;45.10;;;;;;5036812;28;20217;-83
2023/10/18 11:56:01;;;;;;;6.55;5.80;;;14.20;41.70;;;;;;5051021;28;20288;-85
2023/10/18 11:58:30;;;;;;;9.15;5.55;;;14.30;40.20;;;;;;5049223;28;20201;-85
2023/10/18 12:01:00;;;;;;;6.15;5.30;;;14.50;40.40;;;;;;5016465;28;20252;-85
2023/10/18 12:03:28;;;;;;;7.40;5.70;;;14.40;39.50;;;;;;5027524;28;20198;-84
2023/10/18 12:05:57;;;;;;;6.57;5.78;;;14.40;39.10;;;;;;5049040;28;21109;-83
2023/10/18 12:08:30;;;;;;;8.48;5.88;;;14.40;39.30;;;;;;5046115;28;20674;-83
2023/10/18 12:10:57;;;;;;;6.70;5.57;;;14.40;42.70;;;;;;5035972;28;20308;-83
2023/10/18 12:13:24;;;;;;;5.40;4.65;;;14.40;39.60;;;;;;5053463;28;20198;-84
2023/10/18 12:15:52;;;;;;;4.85;4.32;;;14.60;40.00;;;;;;5050076;28;20793;-83
2023/10/18 12:18:21;;;;;;;4.90;4.40;;;14.60;36.10;;;;;;5052088;28;20202;-85
2023/10/18 12:20:51;;;;;;;5.32;3.95;;;14.70;33.70;;;;;;5053698;28;20315;-86
2023/10/18 12:23:19;;;;;;;5.60;4.07;;;14.80;33.00;;;;;;5052735;28;20194;-83
2023/10/18 12:25:47;;;;;;;6.88;4.35;;;14.80;31.70;;;;;;5052738;28;20206;-87
2023/10/18 12:28:28;;;;;;;8.70;6.90;;;14.70;32.80;;;;;;5043941;28;20213;-85
2023/10/18 12:30:55;;;;;;;7.15;5.07;;;14.50;33.40;;;;;;5051508;28;20202;-86
2023/10/18 12:33:25;;;;;;;10.15;9.10;;;14.50;34.00;;;;;;5030100;28;20194;-85
2023/10/18 12:35:56;;;;;;;5.43;4.05;;;14.50;33.20;;;;;;5027260;28;20551;-84
2023/10/18 12:38:32;;;;;;;4.95;4.45;;;14.60;31.20;;;;;;5055217;28;20212;-84
2023/10/18 12:40:59;;;;;;;5.45;4.32;;;14.50;31.80;;;;;;5052221;28;20200;-86
2023/10/18 12:43:31;;;;;;;7.38;4.68;;;14.60;33.90;;;;;;5050086;28;20198;-82
2023/10/18 12:46:00;;;;;;;5.95;5.35;;;14.70;33.40;;;;;;5052439;28;20195;-83
2023/10/18 12:48:27;;;;;;;9.02;5.88;;;14.60;36.10;;;;;;5047662;28;20218;-86
2023/10/18 12:50:55;;;;;;;10.52;6.28;;;14.60;35.20;;;;;;5051642;28;20305;-86
2023/10/18 12:53:41;;;;;;;10.38;6.50;;;14.50;35.70;;;;;;5049032;28;20243;-87
2023/10/18 12:56:23;;;;;;;8.68;7.50;;;14.40;38.00;;;;;;5050701;28;20202;-86
2023/10/18 12:58:54;;;;;;;7.32;6.40;;;14.40;40.30;;;;;;5052777;28;20252;-84
2023/10/18 13:01:30;;;;;;;7.18;6.20;;;14.40;40.00;;;;;;5053463;28;20209;-85
2023/10/18 13:03:59;;;;;;;7.15;6.03;;;14.40;40.20;;;;;;5048809;28;20263;-83
2023/10/18 13:06:42;;;;;;;10.57;9.45;;;14.40;41.50;;;;;;5051028;28;20198;-84
2023/10/18 13:09:22;;;;;;;10.27;7.57;;;14.30;42.40;;;;;;5048435;28;20287;-82
2023/10/18 13:12:00;;;;;;;6.45;5.72;;;14.30;42.70;;;;;;5052835;28;20198;-82
2023/10/18 13:14:30;;;;;;;6.85;5.80;;;14.30;41.20;;;;;;5052403;28;20244;-82